Time;durP1;ratioP1;P1;durP2;ratioP2;P2;SDS_P1;SDS_P2;PMS_P1;PMS_P2;Temp;Humidity;BMP_temperature;BMP_pressure;BME280_temperature;BME280_humidity;BME280_pressure;Samples;Min_cycle;Max_cycle;Signal;HPM_P1;HPM_P2
2022/04/10 00:01:31;;;;;;;15.67;3.77;;;2.80;99.90;;;;;;5005739;28;20087;-75
2022/04/10 00:03:57;;;;;;;13.73;3.60;;;2.80;99.90;;;;;;5009143;28;20555;-76
2022/04/10 00:06:24;;;;;;;14.83;3.33;;;2.70;99.90;;;;;;5005397;28;20056;-76
2022/04/10 00:08:50;;;;;;;15.03;3.57;;;2.70;99.90;;;;;;4996872;28;20723;-76
2022/04/10 00:11:16;;;;;;;12.73;3.67;;;2.60;99.90;;;;;;4990631;28;20057;-76
2022/04/10 00:13:41;;;;;;;15.07;4.27;;;2.70;99.90;;;;;;4973113;28;20761;-76
2022/04/10 00:16:08;;;;;;;14.27;4.10;;;2.60;99.90;;;;;;4990036;28;20050;-76
2022/04/10 00:18:34;;;;;;;11.70;3.47;;;2.50;99.90;;;;;;5013669;28;20084;-76
2022/04/10 00:21:01;;;;;;;14.40;3.40;;;2.50;99.90;;;;;;4993979;28;20088;-76
2022/04/10 00:23:27;;;;;;;14.33;4.00;;;2.50;99.90;;;;;;4991480;28;20041;-76
2022/04/10 00:25:53;;;;;;;15.00;3.50;;;2.50;99.90;;;;;;5008597;28;20052;-76
2022/04/10 00:28:19;;;;;;;14.03;4.27;;;2.60;99.90;;;;;;5009245;28;20133;-75
2022/04/10 00:30:45;;;;;;;16.83;3.70;;;2.60;99.90;;;;;;5009347;28;20415;-76
2022/04/10 00:33:11;;;;;;;17.90;3.93;;;2.60;99.90;;;;;;5007385;28;20152;-75
2022/04/10 00:35:37;;;;;;;13.13;3.53;;;2.60;99.90;;;;;;5009438;28;20045;-75
2022/04/10 00:38:06;;;;;;;15.73;3.77;;;2.60;99.90;;;;;;4997488;28;20038;-75
2022/04/10 00:40:33;;;;;;;12.10;3.33;;;2.50;99.90;;;;;;5021050;28;20053;-75
2022/04/10 00:43:04;;;;;;;13.07;2.90;;;2.50;99.90;;;;;;4978426;28;20766;-76
2022/04/10 00:45:31;;;;;;;13.70;3.43;;;2.50;99.90;;;;;;4975079;28;20129;-76
2022/04/10 00:47:57;;;;;;;15.13;4.10;;;2.40;99.90;;;;;;5009484;28;20111;-76
2022/04/10 00:50:23;;;;;;;15.23;3.40;;;2.40;99.90;;;;;;5015008;28;20293;-76
2022/04/10 00:52:49;;;;;;;12.40;3.63;;;2.40;99.90;;;;;;5000668;28;20050;-76
2022/04/10 00:55:16;;;;;;;14.87;3.97;;;2.30;99.90;;;;;;4996859;28;20530;-76
2022/04/10 00:57:44;;;;;;;14.83;3.77;;;2.30;99.90;;;;;;4997526;28;20217;-76
2022/04/10 01:00:11;;;;;;;16.60;4.10;;;2.30;99.90;;;;;;5022956;28;20107;-76
2022/04/10 01:02:39;;;;;;;14.27;3.83;;;2.30;99.90;;;;;;4997536;28;20047;-77
2022/04/10 01:05:05;;;;;;;14.70;3.80;;;2.30;99.90;;;;;;4989175;28;20096;-77
2022/04/10 01:07:31;;;;;;;12.90;3.53;;;2.40;99.90;;;;;;4971718;28;20586;-76
2022/04/10 01:09:57;;;;;;;11.60;3.47;;;2.40;99.90;;;;;;4987772;28;20385;-77
2022/04/10 01:12:23;;;;;;;15.47;4.37;;;2.50;99.90;;;;;;5004152;28;20132;-76
2022/04/10 01:14:50;;;;;;;10.30;3.73;;;2.50;99.90;;;;;;4992357;28;20099;-75
2022/04/10 01:17:16;;;;;;;15.57;3.93;;;2.60;99.90;;;;;;4992604;28;20648;-76
2022/04/10 01:19:43;;;;;;;15.33;3.60;;;2.50;99.90;;;;;;4992693;28;20119;-76
2022/04/10 01:22:14;;;;;;;12.77;3.60;;;2.50;99.90;;;;;;5012114;28;20050;-76
2022/04/10 01:24:40;;;;;;;13.57;3.47;;;2.50;99.90;;;;;;4992976;28;20077;-76
2022/04/10 01:27:07;;;;;;;16.47;3.63;;;2.40;99.90;;;;;;4993159;28;20067;-76
2022/04/10 01:29:33;;;;;;;15.67;4.43;;;2.40;99.90;;;;;;5009111;28;20048;-76
2022/04/10 01:31:59;;;;;;;15.60;3.77;;;2.30;99.90;;;;;;4993646;28;20102;-76
2022/04/10 01:34:25;;;;;;;15.63;3.83;;;2.30;99.90;;;;;;5009920;28;20105;-75
2022/04/10 01:36:52;;;;;;;18.83;4.27;;;2.20;99.90;;;;;;4993165;28;20116;-76
2022/04/10 01:39:17;;;;;;;16.17;4.20;;;2.20;99.90;;;;;;4992217;28;20072;-76
2022/04/10 01:41:46;;;;;;;18.53;5.30;;;2.20;99.90;;;;;;4998623;28;20118;-76
2022/04/10 01:44:12;;;;;;;18.53;4.33;;;2.10;99.90;;;;;;4993254;28;20132;-77
2022/04/10 01:46:38;;;;;;;15.40;4.13;;;2.10;99.90;;;;;;5012290;28;20053;-76
2022/04/10 01:49:05;;;;;;;14.80;4.20;;;2.20;99.90;;;;;;5008788;28;20049;-76
2022/04/10 01:51:32;;;;;;;13.27;4.80;;;2.00;99.90;;;;;;5002081;28;20050;-76
2022/04/10 01:53:59;;;;;;;15.63;4.13;;;2.00;99.90;;;;;;4980264;28;20041;-75
2022/04/10 01:56:25;;;;;;;14.90;5.00;;;2.00;99.90;;;;;;5008730;28;20058;-76
2022/04/10 01:58:52;;;;;;;19.67;4.20;;;2.00;99.90;;;;;;4991315;28;20063;-76
2022/04/10 02:01:19;;;;;;;17.37;3.93;;;2.00;99.90;;;;;;5008957;28;20052;-76
2022/04/10 02:03:50;;;;;;;16.80;4.30;;;2.00;99.90;;;;;;4989228;28;20131;-76
2022/04/10 02:06:16;;;;;;;19.00;4.37;;;2.00;99.90;;;;;;5015291;28;20049;-76
2022/04/10 02:08:43;;;;;;;15.63;4.23;;;2.00;99.90;;;;;;4990989;28;20134;-76
2022/04/10 02:11:18;;;;;;;16.57;4.07;;;2.00;99.90;;;;;;4990870;28;20049;-76
2022/04/10 02:13:48;;;;;;;18.63;4.53;;;2.10;99.90;;;;;;4999144;28;20046;-76
2022/04/10 02:16:15;;;;;;;14.10;4.18;;;2.10;99.90;;;;;;5009687;28;20143;-75
2022/04/10 02:18:42;;;;;;;19.37;4.70;;;2.10;99.90;;;;;;5012412;28;20751;-75
2022/04/10 02:21:08;;;;;;;12.40;3.70;;;2.10;99.90;;;;;;5007819;28;20049;-75
2022/04/10 02:23:34;;;;;;;12.63;4.30;;;2.10;99.90;;;;;;4992564;28;20444;-76
2022/04/10 02:26:00;;;;;;;14.20;4.50;;;2.10;99.90;;;;;;5007892;28;20054;-75
2022/04/10 02:28:26;;;;;;;11.57;3.60;;;2.10;99.90;;;;;;4993757;28;20105;-75
2022/04/10 02:30:52;;;;;;;14.27;4.00;;;2.10;99.90;;;;;;5006699;28;20038;-75
2022/04/10 02:33:18;;;;;;;16.30;4.00;;;2.00;99.90;;;;;;4994164;28;20054;-75
2022/04/10 02:35:44;;;;;;;15.90;4.13;;;2.10;99.90;;;;;;4990884;28;20076;-75
2022/04/10 02:38:10;;;;;;;13.73;3.80;;;2.00;99.90;;;;;;4990414;28;20602;-75
2022/04/10 02:40:36;;;;;;;12.13;3.83;;;1.90;99.90;;;;;;4984920;28;20041;-75
2022/04/10 02:43:02;;;;;;;15.53;3.83;;;1.90;99.90;;;;;;4992691;28;20044;-75
2022/04/10 02:45:28;;;;;;;13.13;3.80;;;2.00;99.90;;;;;;4994870;28;20115;-76
2022/04/10 02:47:54;;;;;;;16.80;4.10;;;2.00;99.90;;;;;;5006382;28;20034;-76
2022/04/10 02:50:20;;;;;;;15.67;4.27;;;2.10;99.90;;;;;;4970828;28;20131;-75
2022/04/10 02:52:46;;;;;;;11.20;3.67;;;2.10;99.90;;;;;;4988138;28;20161;-75
2022/04/10 02:55:12;;;;;;;16.67;3.73;;;2.20;99.90;;;;;;5006004;28;20095;-76
2022/04/10 02:57:38;;;;;;;12.83;4.03;;;2.20;99.90;;;;;;5010813;28;20049;-74
2022/04/10 03:00:04;;;;;;;15.17;4.47;;;2.20;99.90;;;;;;4994137;28;20046;-75
2022/04/10 03:02:30;;;;;;;14.87;4.03;;;2.20;99.90;;;;;;5005306;28;20064;-75
2022/04/10 03:04:56;;;;;;;11.70;3.60;;;2.30;99.90;;;;;;4989546;28;20041;-75
2022/04/10 03:07:22;;;;;;;11.60;3.40;;;2.40;99.90;;;;;;4973382;28;20057;-75
2022/04/10 03:09:48;;;;;;;13.33;3.60;;;2.50;99.90;;;;;;4992503;28;20087;-75
2022/04/10 03:12:13;;;;;;;16.53;4.63;;;2.60;99.90;;;;;;4989625;28;20033;-75
2022/04/10 03:14:39;;;;;;;12.40;3.23;;;2.60;99.90;;;;;;4990478;28;20065;-75
2022/04/10 03:17:05;;;;;;;15.20;3.43;;;2.70;99.90;;;;;;4973910;28;20084;-75
2022/04/10 03:19:31;;;;;;;14.17;3.70;;;2.80;99.90;;;;;;4973918;28;20048;-75
2022/04/10 03:21:57;;;;;;;12.47;3.17;;;2.80;99.90;;;;;;4990671;28;20041;-75
2022/04/10 03:24:23;;;;;;;14.23;3.63;;;2.90;99.90;;;;;;5006807;28;20095;-75
2022/04/10 03:26:48;;;;;;;12.73;3.60;;;3.00;99.90;;;;;;4997235;28;20041;-76
2022/04/10 03:29:14;;;;;;;13.03;4.00;;;2.90;99.90;;;;;;4990102;28;20049;-76
2022/04/10 03:31:40;;;;;;;17.00;3.93;;;2.90;99.90;;;;;;4989838;28;20056;-75
2022/04/10 03:34:05;;;;;;;18.17;3.90;;;2.90;99.90;;;;;;5012014;28;20075;-75
2022/04/10 03:36:31;;;;;;;15.80;4.00;;;3.00;99.90;;;;;;4986025;28;20069;-76
2022/04/10 03:39:00;;;;;;;11.40;3.57;;;2.90;99.90;;;;;;4990111;28;21126;-75
2022/04/10 03:41:26;;;;;;;14.70;3.63;;;3.00;99.90;;;;;;5006601;28;20138;-76
2022/04/10 03:43:52;;;;;;;13.97;3.63;;;3.00;99.90;;;;;;4975034;28;20147;-77
2022/04/10 03:46:18;;;;;;;15.47;3.73;;;3.10;99.90;;;;;;5014361;28;20045;-77
2022/04/10 03:48:43;;;;;;;13.87;3.53;;;3.10;99.90;;;;;;4991556;28;20041;-80
2022/04/10 03:51:09;;;;;;;5.47;1.80;;;3.00;99.90;;;;;;5006380;28;20103;-80
2022/04/10 03:53:35;;;;;;;5.93;1.57;;;2.90;99.90;;;;;;5009950;28;20037;-79
2022/04/10 03:56:05;;;;;;;3.43;1.10;;;2.80;99.90;;;;;;4992905;28;20049;-79
2022/04/10 03:58:31;;;;;;;4.47;1.20;;;2.70;99.90;;;;;;4987815;28;20061;-77
2022/04/10 04:00:57;;;;;;;4.70;1.50;;;2.70;99.90;;;;;;4986457;28;20073;-77
2022/04/10 04:03:23;;;;;;;7.10;1.10;;;2.80;99.90;;;;;;4991229;28;20516;-77
2022/04/10 04:05:49;;;;;;;5.27;1.20;;;2.70;99.90;;;;;;4975115;28;20072;-77
2022/04/10 04:08:15;;;;;;;5.07;1.47;;;2.70;99.90;;;;;;4975180;28;20049;-78
2022/04/10 04:10:41;;;;;;;8.87;2.27;;;2.70;99.90;;;;;;4976198;28;20054;-78
2022/04/10 04:13:07;;;;;;;6.17;2.17;;;2.70;99.90;;;;;;4988846;28;20045;-78
2022/04/10 04:15:36;;;;;;;8.50;2.23;;;2.80;99.90;;;;;;4972422;28;20038;-80
2022/04/10 04:18:05;;;;;;;7.77;2.90;;;2.90;99.90;;;;;;4989582;28;20052;-78
2022/04/10 04:20:31;;;;;;;10.53;3.17;;;2.80;99.90;;;;;;4994820;28;20060;-77
2022/04/10 04:22:57;;;;;;;9.40;2.13;;;2.70;99.90;;;;;;4988933;28;20125;-78
2022/04/10 04:25:22;;;;;;;8.13;3.10;;;2.70;99.90;;;;;;4972566;28;20312;-77
2022/04/10 04:27:48;;;;;;;7.73;2.30;;;2.60;99.90;;;;;;4962057;28;20038;-78
2022/04/10 04:30:14;;;;;;;7.10;2.40;;;2.60;99.90;;;;;;5006419;28;20056;-77
2022/04/10 04:32:40;;;;;;;7.40;2.17;;;2.60;99.90;;;;;;5006350;28;20107;-77
2022/04/10 04:35:06;;;;;;;6.80;2.40;;;2.50;99.90;;;;;;4989626;28;20430;-77
2022/04/10 04:37:32;;;;;;;8.50;2.40;;;2.50;99.90;;;;;;5009747;28;20056;-77
2022/04/10 04:39:58;;;;;;;7.17;2.47;;;2.40;99.90;;;;;;5000219;28;20057;-77
2022/04/10 04:42:24;;;;;;;9.63;2.87;;;2.40;99.90;;;;;;5007360;28;20049;-78
2022/04/10 04:44:50;;;;;;;7.93;2.20;;;2.30;99.90;;;;;;4991388;28;20049;-77
2022/04/10 04:47:15;;;;;;;6.83;2.40;;;2.40;99.90;;;;;;5007235;28;20092;-77
2022/04/10 04:49:41;;;;;;;7.80;2.50;;;2.20;99.90;;;;;;4993839;28;20062;-76
2022/04/10 04:52:10;;;;;;;7.47;2.50;;;2.20;99.90;;;;;;5003188;28;20077;-77
2022/04/10 04:54:36;;;;;;;8.97;2.30;;;2.20;99.90;;;;;;4994388;28;20037;-76
2022/04/10 04:57:05;;;;;;;7.67;2.20;;;2.20;99.90;;;;;;4993238;28;20068;-77
2022/04/10 04:59:31;;;;;;;7.93;2.10;;;2.10;99.90;;;;;;5009890;28;20053;-77
2022/04/10 05:01:56;;;;;;;9.43;2.70;;;2.10;99.90;;;;;;5010099;28;20091;-76
2022/04/10 05:04:22;;;;;;;8.57;2.73;;;2.10;99.90;;;;;;4994901;28;20484;-76
2022/04/10 05:06:48;;;;;;;10.43;2.50;;;2.10;99.90;;;;;;5010833;28;20049;-76
2022/04/10 05:09:13;;;;;;;8.70;2.50;;;2.10;99.90;;;;;;4994603;28;20072;-76
2022/04/10 05:11:39;;;;;;;9.77;2.50;;;2.10;99.90;;;;;;5026761;28;20053;-77
2022/04/10 05:14:05;;;;;;;8.63;2.30;;;2.10;99.90;;;;;;4974987;28;20575;-76
2022/04/10 05:16:31;;;;;;;12.83;3.30;;;2.10;99.90;;;;;;4959256;28;20092;-76
2022/04/10 05:18:57;;;;;;;10.23;2.83;;;2.20;99.90;;;;;;4988528;28;20081;-76
2022/04/10 05:21:23;;;;;;;11.80;2.97;;;2.30;99.90;;;;;;4994504;28;20061;-77
2022/04/10 05:23:49;;;;;;;8.13;2.63;;;2.40;99.90;;;;;;4978591;28;20041;-76
2022/04/10 05:26:15;;;;;;;9.37;2.50;;;2.50;99.90;;;;;;4961887;28;20792;-77
2022/04/10 05:28:41;;;;;;;9.83;2.80;;;2.50;99.90;;;;;;4992983;28;20081;-76
2022/04/10 05:31:07;;;;;;;11.77;2.77;;;2.60;99.90;;;;;;4977576;28;20088;-76
2022/04/10 05:33:33;;;;;;;10.13;3.27;;;2.70;99.90;;;;;;5007965;28;20061;-77
2022/04/10 05:35:59;;;;;;;11.80;3.10;;;2.60;99.90;;;;;;5010362;28;20117;-76
2022/04/10 05:38:25;;;;;;;10.47;2.60;;;2.70;99.90;;;;;;4993698;28;20132;-77
2022/04/10 05:40:54;;;;;;;14.30;3.00;;;2.70;99.90;;;;;;4994057;28;20052;-76
2022/04/10 05:43:23;;;;;;;9.50;2.90;;;2.80;99.90;;;;;;5010094;28;20084;-76
2022/04/10 05:45:50;;;;;;;11.37;3.33;;;2.80;99.90;;;;;;5010718;28;20055;-77
2022/04/10 05:48:19;;;;;;;9.03;2.70;;;2.90;99.90;;;;;;5009656;28;20400;-77
2022/04/10 05:50:45;;;;;;;10.17;3.43;;;3.10;99.90;;;;;;4975925;28;20064;-78
2022/04/10 05:53:11;;;;;;;8.23;2.40;;;3.30;99.90;;;;;;4993799;28;20048;-77
2022/04/10 05:55:37;;;;;;;8.60;2.70;;;3.20;99.90;;;;;;5010330;28;20069;-78
2022/04/10 05:58:04;;;;;;;9.07;2.67;;;3.30;99.90;;;;;;5005038;28;20060;-77
2022/04/10 06:00:30;;;;;;;8.53;2.50;;;3.30;99.90;;;;;;5012127;28;20566;-77
2022/04/10 06:03:00;;;;;;;4.70;1.73;;;3.30;99.90;;;;;;4990755;28;20041;-78
2022/04/10 06:05:26;;;;;;;5.82;2.05;;;3.20;99.90;;;;;;4991908;28;20060;-77
2022/04/10 06:07:51;;;;;;;7.07;2.30;;;3.30;99.90;;;;;;5010232;28;20037;-77
2022/04/10 06:10:17;;;;;;;6.40;1.77;;;3.20;99.90;;;;;;4994581;28;20092;-78
2022/04/10 06:12:43;;;;;;;8.50;2.50;;;3.20;99.90;;;;;;4974234;28;20042;-76
2022/04/10 06:15:09;;;;;;;7.47;2.43;;;3.30;99.90;;;;;;4991902;28;20041;-76
2022/04/10 06:17:35;;;;;;;9.03;2.10;;;3.30;99.90;;;;;;5007484;28;20061;-76
2022/04/10 06:20:01;;;;;;;9.17;2.17;;;3.40;99.90;;;;;;5009332;28;20050;-76
2022/04/10 06:22:27;;;;;;;9.90;2.87;;;3.50;99.90;;;;;;5025430;28;20113;-77
2022/04/10 06:24:53;;;;;;;7.60;2.40;;;3.60;99.90;;;;;;5011267;28;20081;-77
2022/04/10 06:27:20;;;;;;;8.17;2.23;;;3.50;99.90;;;;;;5009731;28;20088;-76
2022/04/10 06:29:47;;;;;;;8.23;2.87;;;3.50;99.90;;;;;;5008347;28;20084;-76
2022/04/10 06:32:13;;;;;;;8.13;2.97;;;3.60;99.90;;;;;;4991423;28;20045;-75
2022/04/10 06:34:40;;;;;;;9.13;2.30;;;3.60;99.90;;;;;;4991540;28;20052;-76
2022/04/10 06:37:07;;;;;;;9.10;2.50;;;3.70;99.90;;;;;;4994111;28;20500;-76
2022/04/10 06:39:36;;;;;;;12.37;2.70;;;3.80;99.90;;;;;;5007947;28;20132;-76
2022/04/10 06:42:06;;;;;;;7.30;2.17;;;3.90;99.90;;;;;;4991114;28;20377;-76
2022/04/10 06:44:31;;;;;;;8.90;2.30;;;4.00;99.90;;;;;;4992490;28;20045;-77
2022/04/10 06:46:57;;;;;;;6.47;2.30;;;4.20;99.90;;;;;;4976710;28;20063;-77
2022/04/10 06:49:23;;;;;;;5.90;2.10;;;4.30;99.90;;;;;;4992485;28;20054;-76
2022/04/10 06:51:49;;;;;;;9.87;2.33;;;4.30;99.90;;;;;;4991205;28;20388;-76
2022/04/10 06:54:15;;;;;;;6.93;2.17;;;4.40;99.90;;;;;;5007973;28;20124;-76
2022/04/10 06:56:40;;;;;;;6.57;1.93;;;4.60;99.90;;;;;;4991942;28;20053;-76
2022/04/10 06:59:07;;;;;;;7.27;2.00;;;4.70;99.90;;;;;;5010992;28;20506;-77
2022/04/10 07:01:33;;;;;;;8.43;2.40;;;4.80;99.90;;;;;;4996481;28;20132;-77
2022/04/10 07:04:00;;;;;;;7.53;1.87;;;4.90;99.90;;;;;;4991952;28;20160;-76
2022/04/10 07:06:29;;;;;;;7.40;1.90;;;5.10;99.90;;;;;;4991614;28;20057;-77
2022/04/10 07:08:57;;;;;;;7.73;2.17;;;5.20;99.90;;;;;;4989293;28;20137;-77
2022/04/10 07:11:23;;;;;;;6.73;2.33;;;5.30;99.90;;;;;;5006880;28;20077;-76
2022/04/10 07:13:49;;;;;;;9.33;2.17;;;5.30;99.90;;;;;;4990767;28;20431;-76
2022/04/10 07:16:15;;;;;;;8.43;2.40;;;5.30;99.90;;;;;;5005786;28;20058;-76
2022/04/10 07:18:40;;;;;;;10.33;2.10;;;5.40;99.90;;;;;;4974789;28;20042;-76
2022/04/10 07:21:06;;;;;;;9.93;2.10;;;5.40;99.90;;;;;;5007327;28;20111;-76
2022/04/10 07:23:42;;;;;;;8.63;2.23;;;5.40;99.90;;;;;;4991612;28;20041;-76
2022/04/10 07:26:08;;;;;;;8.10;1.90;;;5.50;99.90;;;;;;4991504;28;20092;-77
2022/04/10 07:28:34;;;;;;;8.83;2.17;;;5.70;99.90;;;;;;5007357;28;20605;-76
2022/04/10 07:31:00;;;;;;;9.73;2.40;;;5.90;99.90;;;;;;4975504;28;20141;-76
2022/04/10 07:33:26;;;;;;;11.27;3.20;;;6.10;99.90;;;;;;4991606;28;20124;-77
2022/04/10 07:35:52;;;;;;;8.30;2.17;;;6.20;99.90;;;;;;4991432;28;20080;-76
2022/04/10 07:38:18;;;;;;;9.80;2.03;;;6.40;99.90;;;;;;4990234;28;20053;-77
2022/04/10 07:40:44;;;;;;;11.97;2.57;;;6.50;99.90;;;;;;5007192;28;20045;-76
2022/04/10 07:43:10;;;;;;;7.45;2.40;;;6.60;99.90;;;;;;4988686;28;20053;-76
2022/04/10 07:48:20;;;;;;;9.80;2.40;;;6.90;99.90;;;;;;5003990;28;20057;-76
2022/04/10 07:50:46;;;;;;;11.00;2.78;;;6.90;99.90;;;;;;4989350;28;20378;-76
2022/04/10 07:53:12;;;;;;;13.55;2.85;;;7.00;99.90;;;;;;4989642;28;20038;-76
2022/04/10 07:55:38;;;;;;;12.23;2.55;;;7.00;99.90;;;;;;5004278;28;20382;-77
2022/04/10 07:58:04;;;;;;;11.45;2.30;;;7.00;99.90;;;;;;4973363;28;20045;-77
2022/04/10 08:00:32;;;;;;;8.35;2.13;;;7.00;99.90;;;;;;4988286;28;20053;-77
2022/04/10 08:02:59;;;;;;;10.80;2.22;;;7.10;99.90;;;;;;4989435;28;20049;-76
2022/04/10 08:05:25;;;;;;;8.88;2.10;;;7.10;99.90;;;;;;4987654;28;20840;-78
2022/04/10 08:07:50;;;;;;;8.52;1.90;;;7.00;99.90;;;;;;4999439;28;20041;-77
2022/04/10 08:10:16;;;;;;;9.30;2.22;;;6.90;99.90;;;;;;4985892;28;20471;-77
2022/04/10 08:12:43;;;;;;;9.30;2.40;;;6.80;99.90;;;;;;4967283;28;20045;-78
2022/04/10 08:15:12;;;;;;;10.52;2.03;;;6.70;99.90;;;;;;5001959;28;20795;-77
2022/04/10 08:17:38;;;;;;;9.38;2.15;;;6.70;99.90;;;;;;4985748;28;20776;-80
2022/04/10 08:20:05;;;;;;;9.38;1.88;;;6.70;99.90;;;;;;5003511;28;20052;-78
2022/04/10 08:22:36;;;;;;;10.30;2.30;;;6.70;99.90;;;;;;4986381;28;20175;-78
2022/04/10 08:25:03;;;;;;;;;;;6.60;99.90;;;;;;5005350;28;20488;-78
2022/04/10 08:27:29;;;;;;;9.70;2.45;;;6.60;99.90;;;;;;4988433;28;19979;-77
2022/04/10 08:29:55;;;;;;;12.63;2.45;;;6.90;99.90;;;;;;4986102;28;20053;-77
2022/04/10 08:32:21;;;;;;;9.73;2.50;;;7.10;99.90;;;;;;5005316;28;20445;-78
2022/04/10 08:34:48;;;;;;;9.85;2.30;;;7.40;99.90;;;;;;4970763;28;20048;-77
2022/04/10 08:37:14;;;;;;;8.48;1.83;;;7.70;99.90;;;;;;4989688;28;20395;-77
2022/04/10 08:39:40;;;;;;;9.43;2.40;;;8.00;99.90;;;;;;5005012;28;20439;-77
2022/04/10 08:42:09;;;;;;;9.88;2.53;;;8.20;99.90;;;;;;4990402;28;20069;-78
2022/04/10 08:44:36;;;;;;;10.75;2.17;;;8.20;99.90;;;;;;4970847;28;20049;-78
2022/04/10 08:47:03;;;;;;;9.27;2.28;;;8.10;99.90;;;;;;4959104;28;20103;-78
2022/04/10 08:49:30;;;;;;;9.38;2.40;;;7.80;99.90;;;;;;4989690;28;20126;-78
2022/04/10 08:51:57;;;;;;;10.75;2.60;;;7.50;99.90;;;;;;4970660;28;20045;-77
2022/04/10 08:54:25;;;;;;;11.15;2.17;;;7.30;99.90;;;;;;5003013;28;20104;-78
2022/04/10 08:56:51;;;;;;;10.18;2.67;;;7.10;99.90;;;;;;4990391;28;20468;-76
2022/04/10 08:59:19;;;;;;;8.40;2.63;;;7.10;99.90;;;;;;4968908;28;20056;-78
2022/04/10 09:01:45;;;;;;;10.95;2.58;;;7.30;99.90;;;;;;4979574;28;20096;-77
2022/04/10 09:04:13;;;;;;;8.63;2.50;;;7.50;99.90;;;;;;5009730;28;20072;-76
2022/04/10 09:06:43;;;;;;;9.00;1.85;;;7.80;99.90;;;;;;4998957;28;20096;-79
2022/04/10 09:09:17;;;;;;;7.82;1.88;;;8.00;99.90;;;;;;4990994;28;20551;-78
2022/04/10 09:11:46;;;;;;;9.32;2.00;;;7.90;99.90;;;;;;4974291;28;20092;-78
2022/04/10 09:14:27;;;;;;;12.80;2.53;;;7.80;99.90;;;;;;4987213;28;20045;-79
2022/04/10 09:17:13;;;;;;;8.23;2.08;;;7.80;99.90;;;;;;5009073;28;20050;-78
2022/04/10 09:19:42;;;;;;;8.23;2.33;;;7.70;99.90;;;;;;5009753;28;20131;-77
2022/04/10 09:22:27;;;;;;;8.52;1.80;;;7.60;99.90;;;;;;4989836;28;20072;-78
2022/04/10 09:25:11;;;;;;;9.57;2.50;;;7.90;99.90;;;;;;5011921;28;20105;-77
2022/04/10 09:27:41;;;;;;;6.88;1.77;;;8.10;99.90;;;;;;4980900;28;20045;-79
2022/04/10 09:30:33;;;;;;;9.82;2.15;;;8.50;99.90;;;;;;5003180;28;20579;-77
2022/04/10 09:32:59;;;;;;;9.32;2.25;;;8.60;99.90;;;;;;5002165;28;20045;-78
2022/04/10 09:35:25;;;;;;;11.82;2.05;;;8.60;99.90;;;;;;4997667;28;20149;-78
2022/04/10 09:37:53;;;;;;;9.68;2.15;;;8.60;98.40;;;;;;4977366;28;20568;-77
2022/04/10 09:40:30;;;;;;;10.48;2.30;;;8.40;99.70;;;;;;5006831;28;20405;-77
2022/04/10 09:43:04;;;;;;;6.13;1.88;;;8.30;99.90;;;;;;4996263;28;20609;-78
2022/04/10 09:45:44;;;;;;;12.35;2.38;;;8.30;99.90;;;;;;5007511;28;20487;-79
2022/04/10 09:48:30;;;;;;;9.30;1.98;;;8.40;99.90;;;;;;4984054;28;20412;-77
2022/04/10 09:51:01;;;;;;;9.38;2.35;;;8.40;99.90;;;;;;4992919;28;20510;-76
2022/04/10 09:53:27;;;;;;;8.40;1.92;;;8.60;99.90;;;;;;5002228;28;20582;-76
2022/04/10 09:55:55;;;;;;;8.57;1.92;;;8.80;99.90;;;;;;4988470;28;20057;-75
2022/04/10 09:58:22;;;;;;;9.32;1.88;;;9.00;99.90;;;;;;4976129;28;20057;-78
2022/04/10 10:00:56;;;;;;;9.75;1.98;;;9.00;99.90;;;;;;4993657;28;20045;-76
2022/04/10 10:03:31;;;;;;;11.02;2.42;;;8.90;99.90;;;;;;5007762;28;20469;-78
2022/04/10 10:05:58;;;;;;;9.40;2.13;;;8.60;99.90;;;;;;5001574;28;20076;-78
2022/04/10 10:08:25;;;;;;;7.18;2.28;;;8.30;99.90;;;;;;4973908;28;20057;-78
2022/04/10 10:10:51;;;;;;;7.45;2.97;;;8.40;99.90;;;;;;4974797;28;20508;-77
2022/04/10 10:13:26;;;;;;;9.38;2.05;;;8.70;99.90;;;;;;5003652;28;20041;-77
2022/04/10 10:15:55;;;;;;;7.93;1.83;;;8.90;99.90;;;;;;5003017;28;20207;-77
2022/04/10 10:18:23;;;;;;;8.38;2.50;;;9.00;99.90;;;;;;4988051;28;20108;-77
2022/04/10 10:20:50;;;;;;;9.50;2.88;;;9.00;99.90;;;;;;4961599;28;20128;-77
2022/04/10 10:23:19;;;;;;;9.70;2.10;;;9.10;99.90;;;;;;4994526;28;20092;-77
2022/04/10 10:26:12;;;;;;;13.57;2.47;;;9.20;99.90;;;;;;4983996;28;20519;-77
2022/04/10 10:28:58;;;;;;;11.45;2.47;;;9.50;99.90;;;;;;5000241;28;20567;-76
2022/04/10 10:31:44;;;;;;;9.55;1.70;;;9.80;99.90;;;;;;5004179;28;20052;-78
2022/04/10 10:34:10;;;;;;;10.35;2.40;;;10.10;99.90;;;;;;5001723;28;20038;-77
2022/04/10 10:36:36;;;;;;;10.00;2.13;;;10.30;99.90;;;;;;4989589;28;20088;-77
2022/04/10 10:39:07;;;;;;;8.60;1.50;;;10.20;98.30;;;;;;4974210;28;20041;-80
2022/04/10 10:41:38;;;;;;;5.35;1.35;;;10.00;96.70;;;;;;5001349;28;20045;-78
2022/04/10 10:44:17;;;;;;;10.02;1.60;;;9.60;92.30;;;;;;5020293;28;20058;-77
2022/04/10 10:46:58;;;;;;;5.35;1.70;;;9.30;92.90;;;;;;5001201;28;20056;-77
2022/04/10 10:49:27;;;;;;;5.70;1.60;;;9.30;95.10;;;;;;5000914;28;20045;-76
2022/04/10 10:51:55;;;;;;;6.80;1.80;;;9.50;94.40;;;;;;5001840;28;20158;-76
2022/04/10 10:54:24;;;;;;;6.45;1.75;;;9.60;95.10;;;;;;4985521;28;20041;-76
2022/04/10 10:56:50;;;;;;;6.35;1.30;;;9.60;94.90;;;;;;4986270;28;20057;-76
2022/04/10 10:59:21;;;;;;;5.13;1.30;;;9.60;95.50;;;;;;4986047;28;20054;-76
2022/04/10 11:02:05;;;;;;;9.70;2.00;;;9.50;95.50;;;;;;4983283;28;20504;-78
2022/04/10 11:04:46;;;;;;;7.18;1.55;;;9.40;96.00;;;;;;4975997;28;20068;-76
2022/04/10 11:07:12;;;;;;;6.80;2.00;;;9.50;95.90;;;;;;4990405;28;20044;-75
2022/04/10 11:09:48;;;;;;;6.97;1.50;;;9.60;97.00;;;;;;5002614;28;20442;-77
2022/04/10 11:12:15;;;;;;;7.53;1.50;;;9.60;94.20;;;;;;5000857;28;20373;-77
2022/04/10 11:14:44;;;;;;;7.20;1.40;;;9.60;94.10;;;;;;4972592;28;20065;-77
2022/04/10 11:17:20;;;;;;;6.53;1.40;;;9.60;94.00;;;;;;5005444;28;20044;-76
2022/04/10 11:19:56;;;;;;;5.18;1.52;;;9.60;95.70;;;;;;5002301;28;20080;-75
2022/04/10 11:22:30;;;;;;;9.20;2.38;;;9.60;93.50;;;;;;5001269;28;20471;-76
2022/04/10 11:25:04;;;;;;;7.45;1.60;;;9.80;95.20;;;;;;4986134;28;20047;-76
2022/04/10 11:27:56;;;;;;;8.98;1.85;;;10.00;96.40;;;;;;4984471;28;20037;-77
2022/04/10 11:30:29;;;;;;;9.95;2.30;;;9.80;99.30;;;;;;4982281;28;20277;-77
2022/04/10 11:33:00;;;;;;;6.88;1.95;;;9.40;99.90;;;;;;5000020;28;20044;-76
2022/04/10 11:35:37;;;;;;;9.82;1.92;;;9.10;99.90;;;;;;5001714;28;20049;-77
2022/04/10 11:38:15;;;;;;;6.00;1.70;;;8.90;99.90;;;;;;5002148;28;20049;-76
2022/04/10 11:40:49;;;;;;;9.10;3.45;;;8.90;99.90;;;;;;5001211;28;20107;-76
2022/04/10 11:43:17;;;;;;;8.15;1.85;;;9.20;99.90;;;;;;4955925;28;20045;-77
2022/04/10 11:45:44;;;;;;;9.02;1.60;;;9.50;99.90;;;;;;4984642;28;20045;-77
2022/04/10 11:48:11;;;;;;;9.10;1.92;;;9.80;99.90;;;;;;5002097;28;20048;-79
2022/04/10 11:50:38;;;;;;;8.60;1.50;;;10.20;99.90;;;;;;5000573;28;20041;-76
2022/04/10 11:53:08;;;;;;;6.80;1.98;;;10.20;96.40;;;;;;5003247;28;20053;-77
2022/04/10 11:55:39;;;;;;;12.63;5.50;;;10.30;99.20;;;;;;4982315;28;20061;-76
2022/04/10 11:58:26;;;;;;;8.10;1.80;;;10.30;97.60;;;;;;4998373;28;20451;-77
2022/04/10 12:00:59;;;;;;;7.93;2.83;;;10.10;97.50;;;;;;5000007;28;20057;-77
2022/04/10 12:03:26;;;;;;;;;;;10.10;96.80;;;;;;5000261;28;20073;-76
2022/04/10 12:05:53;;;;;;;7.70;2.05;;;10.20;96.90;;;;;;4982118;28;20364;-76
2022/04/10 12:08:20;;;;;;;6.93;2.15;;;10.30;91.70;;;;;;4984472;28;20496;-77
2022/04/10 12:10:59;;;;;;;7.13;1.58;;;10.50;93.90;;;;;;4985608;28;20053;-77
2022/04/10 12:13:38;;;;;;;7.50;1.63;;;10.80;95.70;;;;;;5000628;28;20513;-76
2022/04/10 12:16:16;;;;;;;8.32;1.73;;;11.00;92.80;;;;;;4985130;28;20563;-76
2022/04/10 12:18:48;;;;;;;3.78;1.00;;;11.20;92.20;;;;;;5002746;28;20042;-78
2022/04/10 12:21:15;;;;;;;6.05;1.15;;;11.20;77.20;;;;;;4986600;28;20516;-77
2022/04/10 12:23:40;;;;;;;5.95;1.30;;;10.90;79.80;;;;;;4983214;28;20125;-77
2022/04/10 12:26:07;;;;;;;7.57;1.52;;;10.80;85.20;;;;;;5003653;28;20541;-78
2022/04/10 12:28:33;;;;;;;6.38;1.35;;;10.70;84.40;;;;;;4999950;28;20509;-75
2022/04/10 12:31:01;;;;;;;5.95;1.05;;;10.80;90.20;;;;;;5004309;28;20057;-78
2022/04/10 12:33:28;;;;;;;6.82;1.65;;;10.80;87.00;;;;;;4999633;28;20054;-76
2022/04/10 12:35:54;;;;;;;5.30;1.85;;;10.90;90.40;;;;;;4986890;28;20530;-77
2022/04/10 12:38:20;;;;;;;4.47;1.17;;;11.00;84.40;;;;;;5004095;28;20413;-76
2022/04/10 12:40:46;;;;;;;6.10;1.63;;;11.00;79.00;;;;;;4985288;28;20049;-76
2022/04/10 12:43:14;;;;;;;10.48;1.45;;;11.10;82.30;;;;;;5000072;28;20593;-77
2022/04/10 12:45:42;;;;;;;4.68;1.00;;;11.00;80.70;;;;;;5000745;28;20518;-75
2022/04/10 12:48:22;;;;;;;5.22;1.30;;;10.80;83.60;;;;;;5003939;28;20038;-76
2022/04/10 12:51:04;;;;;;;7.38;1.27;;;10.70;86.50;;;;;;4980222;28;20317;-78
2022/04/10 12:53:30;;;;;;;7.03;1.50;;;10.80;81.00;;;;;;5003194;28;20053;-77
2022/04/10 12:55:56;;;;;;;5.80;1.40;;;11.00;90.30;;;;;;5001228;28;20061;-77
2022/04/10 12:58:21;;;;;;;4.57;1.42;;;11.30;80.90;;;;;;5001941;28;20057;-77
2022/04/10 13:00:48;;;;;;;5.53;1.40;;;11.60;90.30;;;;;;4986849;28;20451;-77